sensor_id;sensor_type;location;lat;lon;timestamp;pressure;altitude;pressure_sealevel;temperature;humidity
71105;BME280;58760;48.716;8.962;2022-08-21T00:01:18;96611.16;;;15.24;70.11
71105;BME280;58760;48.716;8.962;2022-08-21T00:03:44;96608.94;;;15.34;69.28
71105;BME280;58760;48.716;8.962;2022-08-21T00:06:10;96604.63;;;15.40;69.26
71105;BME280;58760;48.716;8.962;2022-08-21T00:08:35;96608.53;;;15.44;68.92
71105;BME280;58760;48.716;8.962;2022-08-21T00:11:01;96610.16;;;15.38;68.94
71105;BME280;58760;48.716;8.962;2022-08-21T00:13:27;96601.69;;;15.35;69.18
71105;BME280;58760;48.716;8.962;2022-08-21T00:15:52;96604.75;;;15.25;70.92
71105;BME280;58760;48.716;8.962;2022-08-21T00:18:18;96602.28;;;15.24;70.60
71105;BME280;58760;48.716;8.962;2022-08-21T00:20:45;96601.03;;;15.19;70.05
71105;BME280;58760;48.716;8.962;2022-08-21T00:23:11;96603.09;;;15.17;69.55
71105;BME280;58760;48.716;8.962;2022-08-21T00:25:37;96596.06;;;15.10;70.26
71105;BME280;58760;48.716;8.962;2022-08-21T00:28:03;96596.47;;;15.07;69.43
71105;BME280;58760;48.716;8.962;2022-08-21T00:30:29;96595.59;;;15.00;69.54
71105;BME280;58760;48.716;8.962;2022-08-21T00:32:56;96595.19;;;14.96;69.29
71105;BME280;58760;48.716;8.962;2022-08-21T00:35:27;96592.09;;;14.99;69.31
71105;BME280;58760;48.716;8.962;2022-08-21T00:37:53;96593.75;;;15.00;70.45
71105;BME280;58760;48.716;8.962;2022-08-21T00:40:40;96599.28;;;14.92;70.52
71105;BME280;58760;48.716;8.962;2022-08-21T00:43:07;96591.88;;;14.94;71.68
71105;BME280;58760;48.716;8.962;2022-08-21T00:45:33;96594.25;;;14.76;71.68
71105;BME280;58760;48.716;8.962;2022-08-21T00:47:59;96599.84;;;14.81;73.05
71105;BME280;58760;48.716;8.962;2022-08-21T00:50:28;96595.31;;;14.82;71.28
71105;BME280;58760;48.716;8.962;2022-08-21T00:52:56;96594.28;;;14.83;71.62
71105;BME280;58760;48.716;8.962;2022-08-21T00:55:23;96599.63;;;14.83;72.90
71105;BME280;58760;48.716;8.962;2022-08-21T00:57:55;96591.38;;;14.78;71.95
71105;BME280;58760;48.716;8.962;2022-08-21T01:00:26;96590.47;;;14.64;71.83
71105;BME280;58760;48.716;8.962;2022-08-21T01:02:54;96590.06;;;14.60;72.52
71105;BME280;58760;48.716;8.962;2022-08-21T01:05:20;96589.25;;;14.66;72.89
71105;BME280;58760;48.716;8.962;2022-08-21T01:07:46;96584.31;;;14.63;72.10
71105;BME280;58760;48.716;8.962;2022-08-21T01:10:12;96588.78;;;14.50;72.39
71105;BME280;58760;48.716;8.962;2022-08-21T01:12:38;96592.63;;;14.47;72.40
71105;BME280;58760;48.716;8.962;2022-08-21T01:15:06;96579.28;;;14.47;72.62
71105;BME280;58760;48.716;8.962;2022-08-21T01:17:32;96589.75;;;14.42;73.63
71105;BME280;58760;48.716;8.962;2022-08-21T01:19:58;96580.31;;;14.46;73.92
71105;BME280;58760;48.716;8.962;2022-08-21T01:22:24;96582.16;;;14.46;72.28
71105;BME280;58760;48.716;8.962;2022-08-21T01:24:50;96586.06;;;14.43;72.28
71105;BME280;58760;48.716;8.962;2022-08-21T01:27:15;96586.44;;;14.40;71.71
71105;BME280;58760;48.716;8.962;2022-08-21T01:29:51;96581.41;;;14.31;72.55
71105;BME280;58760;48.716;8.962;2022-08-21T01:32:20;96581.16;;;14.26;74.20
71105;BME280;58760;48.716;8.962;2022-08-21T01:34:47;96571.72;;;14.23;73.74
71105;BME280;58760;48.716;8.962;2022-08-21T01:37:13;96578.09;;;14.29;74.66
71105;BME280;58760;48.716;8.962;2022-08-21T01:39:40;96572.34;;;14.25;72.81
71105;BME280;58760;48.716;8.962;2022-08-21T01:42:06;96573.88;;;14.13;72.67
71105;BME280;58760;48.716;8.962;2022-08-21T01:44:32;96575.72;;;14.12;74.05
71105;BME280;58760;48.716;8.962;2022-08-21T01:47:00;96571.84;;;14.15;74.05
71105;BME280;58760;48.716;8.962;2022-08-21T01:49:25;96573.69;;;14.14;74.32
71105;BME280;58760;48.716;8.962;2022-08-21T01:51:51;96569.56;;;14.12;73.66
71105;BME280;58760;48.716;8.962;2022-08-21T01:54:17;96574.84;;;14.05;73.02
71105;BME280;58760;48.716;8.962;2022-08-21T01:56:45;96570.72;;;14.03;73.58
71105;BME280;58760;48.716;8.962;2022-08-21T01:59:11;96578.50;;;13.98;75.01
71105;BME280;58760;48.716;8.962;2022-08-21T02:01:37;96573.16;;;13.98;74.65
71105;BME280;58760;48.716;8.962;2022-08-21T02:04:05;96573.97;;;13.98;74.10
71105;BME280;58760;48.716;8.962;2022-08-21T02:06:31;96566.56;;;13.94;74.97
71105;BME280;58760;48.716;8.962;2022-08-21T02:08:57;96558.78;;;13.99;74.30
71105;BME280;58760;48.716;8.962;2022-08-21T02:11:22;96555.06;;;13.93;75.62
71105;BME280;58760;48.716;8.962;2022-08-21T02:13:47;96552.00;;;13.96;75.50
71105;BME280;58760;48.716;8.962;2022-08-21T02:16:13;96559.94;;;13.90;76.12
71105;BME280;58760;48.716;8.962;2022-08-21T02:18:38;96555.84;;;13.87;76.54
71105;BME280;58760;48.716;8.962;2022-08-21T02:21:04;96552.56;;;13.92;76.36
71105;BME280;58760;48.716;8.962;2022-08-21T02:23:31;96553.41;;;13.92;76.14
71105;BME280;58760;48.716;8.962;2022-08-21T02:25:58;96558.69;;;13.86;74.69
71105;BME280;58760;48.716;8.962;2022-08-21T02:28:23;96545.22;;;13.94;76.37
71105;BME280;58760;48.716;8.962;2022-08-21T02:30:50;96552.19;;;13.95;75.95
71105;BME280;58760;48.716;8.962;2022-08-21T02:33:16;96543.50;;;13.86;76.39
71105;BME280;58760;48.716;8.962;2022-08-21T02:35:43;96548.94;;;13.72;75.08
71105;BME280;58760;48.716;8.962;2022-08-21T02:38:12;96550.72;;;13.65;76.43
71105;BME280;58760;48.716;8.962;2022-08-21T02:40:41;96548.16;;;13.56;77.07
71105;BME280;58760;48.716;8.962;2022-08-21T02:43:07;96545.50;;;13.56;78.08
71105;BME280;58760;48.716;8.962;2022-08-21T02:45:34;96553.03;;;13.53;77.53
71105;BME280;58760;48.716;8.962;2022-08-21T02:48:03;96549.56;;;13.52;78.26
71105;BME280;58760;48.716;8.962;2022-08-21T02:50:35;96546.47;;;13.49;77.49
71105;BME280;58760;48.716;8.962;2022-08-21T02:53:01;96545.38;;;13.43;76.92
71105;BME280;58760;48.716;8.962;2022-08-21T02:55:29;96541.06;;;13.42;77.39
71105;BME280;58760;48.716;8.962;2022-08-21T02:57:56;96548.41;;;13.40;77.38
71105;BME280;58760;48.716;8.962;2022-08-21T03:00:23;96544.84;;;13.33;78.01
71105;BME280;58760;48.716;8.962;2022-08-21T03:02:50;96553.50;;;13.35;78.26
71105;BME280;58760;48.716;8.962;2022-08-21T03:05:16;96545.50;;;13.35;78.37
71105;BME280;58760;48.716;8.962;2022-08-21T03:07:43;96541.88;;;13.22;77.51
71105;BME280;58760;48.716;8.962;2022-08-21T03:10:10;96544.84;;;13.12;78.43
71105;BME280;58760;48.716;8.962;2022-08-21T03:12:36;96555.66;;;13.10;78.76
71105;BME280;58760;48.716;8.962;2022-08-21T03:15:05;96544.28;;;13.02;78.51
71105;BME280;58760;48.716;8.962;2022-08-21T03:17:32;96549.72;;;12.94;78.84
71105;BME280;58760;48.716;8.962;2022-08-21T03:19:57;96550.28;;;12.89;79.31
71105;BME280;58760;48.716;8.962;2022-08-21T03:22:23;96547.41;;;12.91;79.70
71105;BME280;58760;48.716;8.962;2022-08-21T03:24:48;96546.66;;;13.12;79.17
71105;BME280;58760;48.716;8.962;2022-08-21T03:27:14;96547.06;;;13.08;78.43
71105;BME280;58760;48.716;8.962;2022-08-21T03:29:40;96555.88;;;13.09;78.13
71105;BME280;58760;48.716;8.962;2022-08-21T03:32:05;96551.91;;;13.05;78.99
71105;BME280;58760;48.716;8.962;2022-08-21T03:34:35;96548.41;;;13.04;78.46
71105;BME280;58760;48.716;8.962;2022-08-21T03:37:00;96549.53;;;13.10;79.18
71105;BME280;58760;48.716;8.962;2022-08-21T03:39:25;96553.84;;;13.11;79.16
71105;BME280;58760;48.716;8.962;2022-08-21T03:41:51;96552.38;;;13.08;78.87
71105;BME280;58760;48.716;8.962;2022-08-21T03:44:17;96559.72;;;13.06;79.22
71105;BME280;58760;48.716;8.962;2022-08-21T03:46:43;96563.19;;;13.07;79.37
71105;BME280;58760;48.716;8.962;2022-08-21T03:49:08;96557.34;;;12.97;78.78
71105;BME280;58760;48.716;8.962;2022-08-21T03:51:33;96557.97;;;12.99;78.83
71105;BME280;58760;48.716;8.962;2022-08-21T03:54:00;96555.69;;;12.96;78.83
71105;BME280;58760;48.716;8.962;2022-08-21T03:56:26;96559.19;;;12.96;78.63
71105;BME280;58760;48.716;8.962;2022-08-21T03:58:51;96558.72;;;12.93;79.02
71105;BME280;58760;48.716;8.962;2022-08-21T04:01:17;96561.38;;;12.93;79.33
71105;BME280;58760;48.716;8.962;2022-08-21T04:03:42;96558.44;;;12.88;79.44
71105;BME280;58760;48.716;8.962;2022-08-21T04:06:07;96563.06;;;12.94;79.06
71105;BME280;58760;48.716;8.962;2022-08-21T04:08:33;96570.00;;;12.95;79.48
71105;BME280;58760;48.716;8.962;2022-08-21T04:11:00;96562.59;;;12.90;78.87
71105;BME280;58760;48.716;8.962;2022-08-21T04:13:26;96571.13;;;12.86;79.61
71105;BME280;58760;48.716;8.962;2022-08-21T04:15:53;96572.78;;;12.87;79.81
71105;BME280;58760;48.716;8.962;2022-08-21T04:18:19;96573.63;;;12.87;79.72
71105;BME280;58760;48.716;8.962;2022-08-21T04:20:48;96575.63;;;12.85;79.70
71105;BME280;58760;48.716;8.962;2022-08-21T04:23:14;96575.16;;;12.82;79.42
71105;BME280;58760;48.716;8.962;2022-08-21T04:25:40;96581.31;;;12.82;79.39
71105;BME280;58760;48.716;8.962;2022-08-21T04:28:05;96582.34;;;12.67;79.55
71105;BME280;58760;48.716;8.962;2022-08-21T04:30:30;96581.97;;;12.70;80.90
71105;BME280;58760;48.716;8.962;2022-08-21T04:32:57;96595.94;;;12.72;79.86
71105;BME280;58760;48.716;8.962;2022-08-21T04:35:24;96592.16;;;12.66;79.50
71105;BME280;58760;48.716;8.962;2022-08-21T04:37:49;96595.03;;;12.65;79.31
71105;BME280;58760;48.716;8.962;2022-08-21T04:40:16;96590.44;;;12.73;80.33
71105;BME280;58760;48.716;8.962;2022-08-21T04:42:53;96601.25;;;12.72;78.67
71105;BME280;58760;48.716;8.962;2022-08-21T04:45:54;96594.09;;;12.72;79.10
71105;BME280;58760;48.716;8.962;2022-08-21T04:48:15;96600.53;;;12.78;80.31
71105;BME280;58760;48.716;8.962;2022-08-21T04:50:48;96591.44;;;12.72;79.39
71105;BME280;58760;48.716;8.962;2022-08-21T04:53:31;96598.88;;;12.77;79.78
71105;BME280;58760;48.716;8.962;2022-08-21T04:56:04;96604.94;;;12.71;79.41
71105;BME280;58760;48.716;8.962;2022-08-21T04:58:30;96603.38;;;12.76;79.05
71105;BME280;58760;48.716;8.962;2022-08-21T05:01:00;96595.22;;;12.78;79.64
71105;BME280;58760;48.716;8.962;2022-08-21T05:03:27;96603.19;;;12.78;79.75
71105;BME280;58760;48.716;8.962;2022-08-21T05:05:53;96604.19;;;12.77;80.33
71105;BME280;58760;48.716;8.962;2022-08-21T05:08:21;96606.50;;;12.80;80.27
71105;BME280;58760;48.716;8.962;2022-08-21T05:10:48;96600.78;;;12.83;79.97
71105;BME280;58760;48.716;8.962;2022-08-21T05:13:14;96603.00;;;12.79;79.71
71105;BME280;58760;48.716;8.962;2022-08-21T05:15:40;96601.81;;;12.82;79.90
71105;BME280;58760;48.716;8.962;2022-08-21T05:18:07;96613.91;;;12.99;79.19
71105;BME280;58760;48.716;8.962;2022-08-21T05:20:33;96610.63;;;12.97;79.08
71105;BME280;58760;48.716;8.962;2022-08-21T05:23:10;96611.00;;;12.94;79.52
71105;BME280;58760;48.716;8.962;2022-08-21T05:25:36;96610.50;;;13.05;79.57
71105;BME280;58760;48.716;8.962;2022-08-21T05:28:02;96606.19;;;13.04;79.22
71105;BME280;58760;48.716;8.962;2022-08-21T05:30:28;96616.03;;;13.03;80.39
71105;BME280;58760;48.716;8.962;2022-08-21T05:33:01;96613.91;;;12.99;79.48
71105;BME280;58760;48.716;8.962;2022-08-21T05:35:27;96628.91;;;13.00;80.73
71105;BME280;58760;48.716;8.962;2022-08-21T05:37:53;96620.66;;;13.09;79.94
71105;BME280;58760;48.716;8.962;2022-08-21T05:40:19;96625.97;;;13.09;79.58
71105;BME280;58760;48.716;8.962;2022-08-21T05:42:44;96624.78;;;13.12;79.86
71105;BME280;58760;48.716;8.962;2022-08-21T05:45:10;96638.78;;;13.35;79.31
71105;BME280;58760;48.716;8.962;2022-08-21T05:47:35;96631.94;;;13.47;78.44
71105;BME280;58760;48.716;8.962;2022-08-21T05:50:02;96627.38;;;13.62;77.64
71105;BME280;58760;48.716;8.962;2022-08-21T05:52:27;96623.13;;;13.47;79.06
71105;BME280;58760;48.716;8.962;2022-08-21T05:54:53;96626.00;;;13.45;79.95
71105;BME280;58760;48.716;8.962;2022-08-21T05:57:19;96623.78;;;13.49;80.16
71105;BME280;58760;48.716;8.962;2022-08-21T05:59:45;96627.91;;;13.51;80.23
71105;BME280;58760;48.716;8.962;2022-08-21T06:02:10;96629.34;;;13.54;79.85
71105;BME280;58760;48.716;8.962;2022-08-21T06:04:37;96631.47;;;13.58;79.57
71105;BME280;58760;48.716;8.962;2022-08-21T06:07:03;96638.50;;;13.66;79.05
71105;BME280;58760;48.716;8.962;2022-08-21T06:09:29;96629.31;;;13.69;79.11
71105;BME280;58760;48.716;8.962;2022-08-21T06:11:54;96628.94;;;13.72;79.02
71105;BME280;58760;48.716;8.962;2022-08-21T06:14:19;96633.50;;;13.78;79.04
71105;BME280;58760;48.716;8.962;2022-08-21T06:16:45;96631.53;;;13.86;78.57
71105;BME280;58760;48.716;8.962;2022-08-21T06:19:10;96625.63;;;13.91;78.90
71105;BME280;58760;48.716;8.962;2022-08-21T06:21:36;96630.66;;;14.00;78.78
71105;BME280;58760;48.716;8.962;2022-08-21T06:24:02;96627.78;;;14.02;78.30
71105;BME280;58760;48.716;8.962;2022-08-21T06:26:27;96625.38;;;14.07;77.63
71105;BME280;58760;48.716;8.962;2022-08-21T06:28:54;96629.56;;;14.16;77.03
71105;BME280;58760;48.716;8.962;2022-08-21T06:31:25;96630.03;;;14.26;76.90
71105;BME280;58760;48.716;8.962;2022-08-21T06:33:51;96622.56;;;14.36;77.02
71105;BME280;58760;48.716;8.962;2022-08-21T06:36:18;96628.13;;;14.41;77.27
71105;BME280;58760;48.716;8.962;2022-08-21T06:38:44;96628.81;;;14.50;77.67
71105;BME280;58760;48.716;8.962;2022-08-21T06:41:10;96634.00;;;14.58;77.04
71105;BME280;58760;48.716;8.962;2022-08-21T06:43:35;96619.28;;;14.69;76.50
71105;BME280;58760;48.716;8.962;2022-08-21T06:46:01;96617.34;;;14.90;75.32
71105;BME280;58760;48.716;8.962;2022-08-21T06:48:26;96616.78;;;14.95;75.92
71105;BME280;58760;48.716;8.962;2022-08-21T06:50:52;96615.97;;;15.01;75.63
71105;BME280;58760;48.716;8.962;2022-08-21T06:53:19;96613.34;;;15.07;75.42
71105;BME280;58760;48.716;8.962;2022-08-21T06:55:46;96617.91;;;15.20;75.19
71105;BME280;58760;48.716;8.962;2022-08-21T06:58:12;96611.75;;;15.26;75.08
71105;BME280;58760;48.716;8.962;2022-08-21T07:00:39;96616.72;;;15.36;75.06
71105;BME280;58760;48.716;8.962;2022-08-21T07:03:05;96617.00;;;15.47;74.73
71105;BME280;58760;48.716;8.962;2022-08-21T07:05:31;96614.56;;;15.59;75.23
71105;BME280;58760;48.716;8.962;2022-08-21T07:07:56;96612.09;;;15.64;73.54
71105;BME280;58760;48.716;8.962;2022-08-21T07:10:26;96614.41;;;15.87;73.02
71105;BME280;58760;48.716;8.962;2022-08-21T07:12:52;96607.66;;;16.04;72.91
71105;BME280;58760;48.716;8.962;2022-08-21T07:15:19;96605.19;;;16.29;71.63
71105;BME280;58760;48.716;8.962;2022-08-21T07:17:44;96604.97;;;16.37;71.68
71105;BME280;58760;48.716;8.962;2022-08-21T07:20:10;96605.38;;;16.40;72.05
71105;BME280;58760;48.716;8.962;2022-08-21T07:22:35;96609.91;;;16.46;71.54
71105;BME280;58760;48.716;8.962;2022-08-21T07:25:02;96613.22;;;16.61;70.88
71105;BME280;58760;48.716;8.962;2022-08-21T07:27:28;96608.69;;;16.62;70.79
71105;BME280;58760;48.716;8.962;2022-08-21T07:29:54;96607.84;;;16.68;69.63
71105;BME280;58760;48.716;8.962;2022-08-21T07:32:19;96606.22;;;16.73;70.82
71105;BME280;58760;48.716;8.962;2022-08-21T07:34:44;96604.13;;;16.82;70.92
71105;BME280;58760;48.716;8.962;2022-08-21T07:37:10;96598.31;;;16.92;69.90
71105;BME280;58760;48.716;8.962;2022-08-21T07:39:35;96593.28;;;17.15;67.91
71105;BME280;58760;48.716;8.962;2022-08-21T07:42:01;96604.41;;;17.25;67.04
71105;BME280;58760;48.716;8.962;2022-08-21T07:44:28;96598.13;;;17.44;66.84
71105;BME280;58760;48.716;8.962;2022-08-21T07:46:53;96596.03;;;17.46;67.43
71105;BME280;58760;48.716;8.962;2022-08-21T07:49:19;96587.69;;;17.67;65.65
71105;BME280;58760;48.716;8.962;2022-08-21T07:51:44;96588.97;;;17.96;64.12
71105;BME280;58760;48.716;8.962;2022-08-21T07:54:09;96586.50;;;17.95;65.52
71105;BME280;58760;48.716;8.962;2022-08-21T07:56:35;96585.19;;;18.04;64.24
71105;BME280;58760;48.716;8.962;2022-08-21T07:59:00;96585.28;;;18.15;63.17
71105;BME280;58760;48.716;8.962;2022-08-21T08:01:28;96588.53;;;18.24;63.91
71105;BME280;58760;48.716;8.962;2022-08-21T08:03:54;96581.47;;;18.29;62.29
71105;BME280;58760;48.716;8.962;2022-08-21T08:06:20;96576.94;;;18.55;62.92
71105;BME280;58760;48.716;8.962;2022-08-21T08:08:45;96582.03;;;18.63;61.26
71105;BME280;58760;48.716;8.962;2022-08-21T08:11:12;96580.13;;;18.63;61.08
71105;BME280;58760;48.716;8.962;2022-08-21T08:13:48;96586.91;;;18.91;60.28
71105;BME280;58760;48.716;8.962;2022-08-21T08:16:14;96582.34;;;19.09;58.81
71105;BME280;58760;48.716;8.962;2022-08-21T08:18:40;96571.78;;;19.26;56.82
71105;BME280;58760;48.716;8.962;2022-08-21T08:21:06;96577.03;;;19.21;57.38
71105;BME280;58760;48.716;8.962;2022-08-21T08:23:32;96575.69;;;19.30;56.44
71105;BME280;58760;48.716;8.962;2022-08-21T08:25:58;96569.97;;;19.56;55.67
71105;BME280;58760;48.716;8.962;2022-08-21T08:28:24;96567.75;;;19.53;55.05
71105;BME280;58760;48.716;8.962;2022-08-21T08:30:50;96566.75;;;19.77;53.87
71105;BME280;58760;48.716;8.962;2022-08-21T08:33:16;96567.28;;;19.86;52.81
71105;BME280;58760;48.716;8.962;2022-08-21T08:35:45;96553.09;;;19.91;52.62
71105;BME280;58760;48.716;8.962;2022-08-21T08:38:11;96560.34;;;19.78;53.47
71105;BME280;58760;48.716;8.962;2022-08-21T08:41:16;96558.94;;;19.88;52.15
71105;BME280;58760;48.716;8.962;2022-08-21T08:43:50;96554.66;;;19.98;50.75
71105;BME280;58760;48.716;8.962;2022-08-21T08:46:20;96556.88;;;20.13;50.14
71105;BME280;58760;48.716;8.962;2022-08-21T08:48:57;96551.50;;;20.13;50.40
71105;BME280;58760;48.716;8.962;2022-08-21T08:51:33;96550.69;;;20.12;50.21
71105;BME280;58760;48.716;8.962;2022-08-21T08:54:06;96541.66;;;20.07;50.95
71105;BME280;58760;48.716;8.962;2022-08-21T08:56:35;96537.69;;;20.21;50.87
71105;BME280;58760;48.716;8.962;2022-08-21T08:59:07;96534.44;;;20.19;50.00
71105;BME280;58760;48.716;8.962;2022-08-21T09:01:34;96533.78;;;20.35;49.70
71105;BME280;58760;48.716;8.962;2022-08-21T09:03:59;96532.81;;;20.41;50.86
71105;BME280;58760;48.716;8.962;2022-08-21T09:09:18;96533.31;;;20.38;49.69
71105;BME280;58760;48.716;8.962;2022-08-21T09:12:07;96537.63;;;20.62;49.90
71105;BME280;58760;48.716;8.962;2022-08-21T09:15:12;96531.25;;;20.92;48.56
71105;BME280;58760;48.716;8.962;2022-08-21T09:18:13;96529.44;;;21.09;48.75
71105;BME280;58760;48.716;8.962;2022-08-21T09:26:19;96511.97;;;21.51;46.13
71105;BME280;58760;48.716;8.962;2022-08-21T09:28:45;96519.25;;;21.51;45.55
71105;BME280;58760;48.716;8.962;2022-08-21T09:31:25;96510.81;;;21.47;45.73
71105;BME280;58760;48.716;8.962;2022-08-21T09:33:58;96509.38;;;21.73;44.16
71105;BME280;58760;48.716;8.962;2022-08-21T09:36:25;96508.06;;;21.59;45.41
71105;BME280;58760;48.716;8.962;2022-08-21T09:38:54;96514.50;;;21.58;44.73
71105;BME280;58760;48.716;8.962;2022-08-21T09:41:32;96509.53;;;21.66;46.07
71105;BME280;58760;48.716;8.962;2022-08-21T09:44:00;96513.81;;;21.79;45.29
71105;BME280;58760;48.716;8.962;2022-08-21T09:46:26;96508.41;;;21.79;46.00
71105;BME280;58760;48.716;8.962;2022-08-21T09:48:59;96501.22;;;21.84;44.71
71105;BME280;58760;48.716;8.962;2022-08-21T09:51:29;96502.00;;;21.97;44.53
71105;BME280;58760;48.716;8.962;2022-08-21T09:59:25;96503.72;;;22.19;43.98
71105;BME280;58760;48.716;8.962;2022-08-21T10:01:52;96498.69;;;22.28;43.23
71105;BME280;58760;48.716;8.962;2022-08-21T10:04:24;96498.28;;;22.53;43.27
71105;BME280;58760;48.716;8.962;2022-08-21T10:06:52;96496.41;;;22.53;42.44
71105;BME280;58760;48.716;8.962;2022-08-21T10:09:19;96496.19;;;22.60;43.65
71105;BME280;58760;48.716;8.962;2022-08-21T10:11:53;96494.97;;;22.67;42.28
71105;BME280;58760;48.716;8.962;2022-08-21T10:30:35;96472.03;;;23.13;40.23
71105;BME280;58760;48.716;8.962;2022-08-21T10:33:11;96473.91;;;23.34;41.00
71105;BME280;58760;48.716;8.962;2022-08-21T10:35:51;96473.63;;;23.36;39.72
71105;BME280;58760;48.716;8.962;2022-08-21T10:55:17;96456.16;;;23.43;39.35
71105;BME280;58760;48.716;8.962;2022-08-21T10:57:49;96452.09;;;23.46;40.21
71105;BME280;58760;48.716;8.962;2022-08-21T11:00:19;96446.69;;;23.46;40.13
71105;BME280;58760;48.716;8.962;2022-08-21T11:02:53;96445.13;;;23.55;40.54
71105;BME280;58760;48.716;8.962;2022-08-21T11:05:31;96446.78;;;23.88;39.35
71105;BME280;58760;48.716;8.962;2022-08-21T11:08:04;96443.66;;;24.06;37.62
71105;BME280;58760;48.716;8.962;2022-08-21T11:10:45;96442.06;;;24.05;36.98
71105;BME280;58760;48.716;8.962;2022-08-21T11:13:15;96444.19;;;24.03;37.36
71105;BME280;58760;48.716;8.962;2022-08-21T11:23:25;96439.50;;;24.67;36.50
71105;BME280;58760;48.716;8.962;2022-08-21T11:26:05;96432.47;;;24.76;36.88
71105;BME280;58760;48.716;8.962;2022-08-21T11:28:38;96433.34;;;24.82;35.96
71105;BME280;58760;48.716;8.962;2022-08-21T11:33:42;96428.25;;;24.48;35.58
71105;BME280;58760;48.716;8.962;2022-08-21T11:39:30;96434.47;;;24.07;37.17
71105;BME280;58760;48.716;8.962;2022-08-21T11:42:23;96429.28;;;24.37;36.61
71105;BME280;58760;48.716;8.962;2022-08-21T11:47:53;96418.91;;;24.81;37.43
71105;BME280;58760;48.716;8.962;2022-08-21T11:50:24;96416.69;;;25.40;34.16
71105;BME280;58760;48.716;8.962;2022-08-21T11:52:56;96411.03;;;25.57;34.14
71105;BME280;58760;48.716;8.962;2022-08-21T11:58:08;96418.03;;;25.43;36.09
71105;BME280;58760;48.716;8.962;2022-08-21T12:00:40;96410.41;;;26.61;33.70
71105;BME280;58760;48.716;8.962;2022-08-21T12:05:54;96415.31;;;29.11;29.99
71105;BME280;58760;48.716;8.962;2022-08-21T12:11:10;96390.56;;;29.26;30.87
71105;BME280;58760;48.716;8.962;2022-08-21T12:14:16;96387.69;;;30.06;30.39
71105;BME280;58760;48.716;8.962;2022-08-21T12:16:44;96387.88;;;30.42;28.50
71105;BME280;58760;48.716;8.962;2022-08-21T12:19:14;96387.47;;;30.89;28.13
71105;BME280;58760;48.716;8.962;2022-08-21T12:22:11;96385.91;;;31.51;27.46
71105;BME280;58760;48.716;8.962;2022-08-21T12:29:39;96368.84;;;32.83;25.54
71105;BME280;58760;48.716;8.962;2022-08-21T12:34:40;96368.84;;;32.91;24.80
71105;BME280;58760;48.716;8.962;2022-08-21T12:39:46;96351.19;;;33.49;23.30
71105;BME280;58760;48.716;8.962;2022-08-21T12:42:38;96350.50;;;33.95;22.33
71105;BME280;58760;48.716;8.962;2022-08-21T12:45:23;96351.97;;;33.41;22.93
71105;BME280;58760;48.716;8.962;2022-08-21T12:50:35;96360.22;;;34.09;23.96
71105;BME280;58760;48.716;8.962;2022-08-21T12:53:12;96358.94;;;33.98;24.70
71105;BME280;58760;48.716;8.962;2022-08-21T12:55:42;96350.03;;;34.65;23.96
71105;BME280;58760;48.716;8.962;2022-08-21T12:58:17;96351.41;;;34.88;23.39
71105;BME280;58760;48.716;8.962;2022-08-21T13:00:49;96344.53;;;34.94;23.15
71105;BME280;58760;48.716;8.962;2022-08-21T13:03:15;96357.47;;;35.32;23.32
71105;BME280;58760;48.716;8.962;2022-08-21T13:05:41;96357.50;;;35.52;22.71
71105;BME280;58760;48.716;8.962;2022-08-21T13:08:10;96355.41;;;35.49;21.47
71105;BME280;58760;48.716;8.962;2022-08-21T13:10:39;96347.94;;;35.50;20.77
71105;BME280;58760;48.716;8.962;2022-08-21T13:13:22;96349.06;;;35.49;21.93
71105;BME280;58760;48.716;8.962;2022-08-21T13:15:48;96346.66;;;35.47;22.40
71105;BME280;58760;48.716;8.962;2022-08-21T13:18:27;96347.69;;;35.63;21.77
71105;BME280;58760;48.716;8.962;2022-08-21T13:21:13;96346.72;;;35.80;21.01
71105;BME280;58760;48.716;8.962;2022-08-21T13:23:39;96352.03;;;35.85;22.00
71105;BME280;58760;48.716;8.962;2022-08-21T13:26:15;96350.88;;;35.45;21.00
71105;BME280;58760;48.716;8.962;2022-08-21T13:28:41;96348.94;;;35.25;21.70
71105;BME280;58760;48.716;8.962;2022-08-21T13:31:09;96345.06;;;35.38;22.06
71105;BME280;58760;48.716;8.962;2022-08-21T13:33:37;96340.88;;;34.35;23.29
71105;BME280;58760;48.716;8.962;2022-08-21T13:36:14;96344.44;;;33.07;23.25
71105;BME280;58760;48.716;8.962;2022-08-21T13:38:42;96353.72;;;31.43;25.95
71105;BME280;58760;48.716;8.962;2022-08-21T13:43:45;96348.78;;;30.23;27.16
71105;BME280;58760;48.716;8.962;2022-08-21T13:46:12;96351.19;;;29.78;29.94
71105;BME280;58760;48.716;8.962;2022-08-21T13:48:40;96347.47;;;30.34;28.59
71105;BME280;58760;48.716;8.962;2022-08-21T13:51:06;96341.22;;;29.87;30.00
71105;BME280;58760;48.716;8.962;2022-08-21T13:56:06;96341.38;;;28.84;28.27
71105;BME280;58760;48.716;8.962;2022-08-21T13:58:46;96335.25;;;28.68;31.20
71105;BME280;58760;48.716;8.962;2022-08-21T14:01:21;96348.50;;;28.56;30.84
71105;BME280;58760;48.716;8.962;2022-08-21T14:03:48;96350.88;;;28.15;31.56
71105;BME280;58760;48.716;8.962;2022-08-21T14:06:21;96343.72;;;28.43;31.02
71105;BME280;58760;48.716;8.962;2022-08-21T14:09:12;96340.06;;;29.00;29.24
71105;BME280;58760;48.716;8.962;2022-08-21T14:11:38;96344.44;;;28.77;29.54
71105;BME280;58760;48.716;8.962;2022-08-21T14:14:30;96336.53;;;28.28;29.82
71105;BME280;58760;48.716;8.962;2022-08-21T14:17:01;96338.31;;;29.28;28.60
71105;BME280;58760;48.716;8.962;2022-08-21T14:19:45;96340.09;;;30.48;26.94
71105;BME280;58760;48.716;8.962;2022-08-21T14:22:32;96337.94;;;31.49;26.60
71105;BME280;58760;48.716;8.962;2022-08-21T14:27:44;96331.09;;;33.65;23.00
71105;BME280;58760;48.716;8.962;2022-08-21T14:30:21;96326.75;;;33.64;22.12
71105;BME280;58760;48.716;8.962;2022-08-21T14:32:47;96321.88;;;33.70;22.91
71105;BME280;58760;48.716;8.962;2022-08-21T14:35:13;96323.31;;;33.59;22.73
71105;BME280;58760;48.716;8.962;2022-08-21T14:37:43;96311.31;;;33.89;22.67
71105;BME280;58760;48.716;8.962;2022-08-21T14:40:10;96305.66;;;33.94;22.39
71105;BME280;58760;48.716;8.962;2022-08-21T14:42:36;96307.56;;;34.20;22.38